Terminal Aerodrome Forecast
Issued by NWS

Home | Current Version | Previous Version | Text Only | Print | Product List | Glossary On
Versions: 1 2 3 4 5 6 7 8 9 10 11 12 13 14 15
344
FTUS45 KTFX 132336
TAFLWT
TAF
KLWT 132336Z 1400/1424 24011KT P6SM SCT080 SCT200
      TEMPO 1401/1405 BKN070
     FM140600 28011KT P6SM FEW020 SCT080 SCT200
     FM141900 27011KT P6SM SCT100 BKN180=

USA.gov is the U.S. government's official web portal to all federal, state and local government web resources and services.